Time;durP1;ratioP1;P1;durP2;ratioP2;P2;SDS_P1;SDS_P2;PMS_P1;PMS_P2;Temp;Humidity;BMP_temperature;BMP_pressure;BME280_temperature;BME280_humidity;BME280_pressure;Samples;Min_cycle;Max_cycle;Signal;HPM_P1;HPM_P2
2023/01/23 00:00:48;;;;;;;1.63;1.10;;;;;;;;;;4941793;28;20369;-70
2023/01/23 00:03:24;;;;;;;1.42;0.95;;;;;;;;;;4941407;28;20055;-71
2023/01/23 00:06:02;;;;;;;1.75;1.00;;;;;;;;;;4937063;28;20043;-71
2023/01/23 00:08:28;;;;;;;1.85;1.08;;;;;;;;;;4940121;28;20513;-71
2023/01/23 00:10:54;;;;;;;1.80;0.90;;;;;;;;;;4943371;28;20078;-71
2023/01/23 00:13:20;;;;;;;1.92;0.90;;;;;;;;;;4940009;28;20449;-71
2023/01/23 00:15:47;;;;;;;2.20;1.10;;;;;;;;;;4932404;28;20074;-71
2023/01/23 00:18:14;;;;;;;1.05;0.90;;;;;;;;;;4937260;28;20158;-70
2023/01/23 00:20:41;;;;;;;2.80;1.02;;;;;;;;;;4932689;28;20050;-70
2023/01/23 00:23:07;;;;;;;1.58;0.88;;;;;;;;;;4939871;28;20039;-69
2023/01/23 00:25:34;;;;;;;1.65;0.90;;;;;;;;;;4941630;28;20129;-70
2023/01/23 00:28:00;;;;;;;3.13;1.48;;;;;;;;;;4938867;28;20150;-71
2023/01/23 00:30:27;;;;;;;1.30;0.95;;;;;;;;;;4941820;28;20051;-71
2023/01/23 00:32:53;;;;;;;1.02;0.80;;;;;;;;;;4938255;28;20043;-71
2023/01/23 00:35:19;;;;;;;1.77;0.93;;;;;;;;;;4937335;28;20055;-71
2023/01/23 00:37:44;;;;;;;0.95;0.80;;;;;;;;;;4937770;28;20055;-72
2023/01/23 00:40:12;;;;;;;1.42;1.10;;;;;;;;;;4936898;28;20047;-72
2023/01/23 00:42:38;;;;;;;1.13;0.90;;;;;;;;;;4943936;28;20135;-71
2023/01/23 00:45:05;;;;;;;0.77;0.75;;;;;;;;;;4937365;28;20044;-70
2023/01/23 00:47:30;;;;;;;1.88;1.10;;;;;;;;;;4937842;28;20052;-70
2023/01/23 00:49:57;;;;;;;1.65;0.93;;;;;;;;;;4938706;28;20051;-69
2023/01/23 00:52:24;;;;;;;1.45;1.10;;;;;;;;;;4941843;28;20051;-70
2023/01/23 00:54:51;;;;;;;6.65;1.10;;;;;;;;;;4934878;28;20047;-70
2023/01/23 00:57:16;;;;;;;2.15;1.10;;;;;;;;;;4933308;28;20146;-69
2023/01/23 00:59:43;;;;;;;2.00;1.00;;;;;;;;;;4939307;28;20677;-69
2023/01/23 01:02:08;;;;;;;1.00;0.80;;;;;;;;;;4933857;28;20039;-70
2023/01/23 01:04:35;;;;;;;2.08;1.02;;;;;;;;;;4937298;28;20051;-70
2023/01/23 01:07:01;;;;;;;1.23;0.80;;;;;;;;;;4935565;28;20738;-70
2023/01/23 01:09:27;;;;;;;2.88;1.00;;;;;;;;;;4939336;28;20106;-70
2023/01/23 01:11:53;;;;;;;1.48;0.90;;;;;;;;;;4937611;28;20043;-71
2023/01/23 01:14:19;;;;;;;1.55;1.00;;;;;;;;;;4938424;28;20043;-71
2023/01/23 01:16:45;;;;;;;1.30;0.80;;;;;;;;;;4938836;28;20051;-69
2023/01/23 01:19:13;;;;;;;1.88;1.05;;;;;;;;;;4943147;28;20499;-71
2023/01/23 01:21:39;;;;;;;2.78;0.98;;;;;;;;;;4938951;28;20047;-69
2023/01/23 01:24:06;;;;;;;1.50;0.90;;;;;;;;;;4940832;28;20051;-70
2023/01/23 01:26:32;;;;;;;1.15;0.80;;;;;;;;;;4940189;28;20098;-71
2023/01/23 01:28:58;;;;;;;1.95;1.10;;;;;;;;;;4940745;28;20091;-70
2023/01/23 01:31:24;;;;;;;0.80;0.77;;;;;;;;;;4940340;28;20039;-69
2023/01/23 01:33:50;;;;;;;2.45;1.00;;;;;;;;;;4941793;28;20670;-70
2023/01/23 01:36:19;;;;;;;1.83;0.93;;;;;;;;;;4943414;28;20106;-69
2023/01/23 01:38:46;;;;;;;1.67;0.98;;;;;;;;;;4941027;28;20058;-69
2023/01/23 01:41:13;;;;;;;1.50;0.80;;;;;;;;;;4940523;28;20729;-71
2023/01/23 01:43:40;;;;;;;2.67;1.00;;;;;;;;;;4942829;28;20043;-71
2023/01/23 01:46:08;;;;;;;0.88;0.73;;;;;;;;;;4940412;28;20051;-69
2023/01/23 01:49:03;;;;;;;1.65;1.08;;;;;;;;;;4941251;28;20052;-70
2023/01/23 01:51:50;;;;;;;2.33;1.05;;;;;;;;;;4941303;28;20190;-71
2023/01/23 01:54:27;;;;;;;3.08;1.10;;;;;;;;;;4942178;28;20048;-71
2023/01/23 01:56:59;;;;;;;1.83;0.90;;;;;;;;;;4942079;28;20039;-71
2023/01/23 01:59:29;;;;;;;1.40;0.98;;;;;;;;;;4945357;28;20809;-71
2023/01/23 02:02:04;;;;;;;0.98;0.80;;;;;;;;;;4936290;28;20442;-70
2023/01/23 02:04:36;;;;;;;1.58;0.80;;;;;;;;;;4941917;28;20765;-70
2023/01/23 02:07:08;;;;;;;2.10;0.90;;;;;;;;;;4938238;28;20067;-71
2023/01/23 02:09:34;;;;;;;1.88;0.85;;;;;;;;;;4935756;28;20156;-69
2023/01/23 02:12:01;;;;;;;5.30;0.88;;;;;;;;;;4942504;28;20126;-71
2023/01/23 02:14:28;;;;;;;2.42;1.20;;;;;;;;;;4941827;28;20439;-70
2023/01/23 02:16:58;;;;;;;1.45;0.70;;;;;;;;;;4944062;28;20073;-70
2023/01/23 02:19:38;;;;;;;1.65;0.75;;;;;;;;;;4943120;28;20051;-72
2023/01/23 02:22:22;;;;;;;1.25;0.85;;;;;;;;;;4937418;28;20168;-70
2023/01/23 02:25:02;;;;;;;0.80;0.73;;;;;;;;;;4938169;28;20051;-71
2023/01/23 02:27:27;;;;;;;2.38;0.95;;;;;;;;;;4938607;28;20051;-70
2023/01/23 02:29:55;;;;;;;0.85;0.70;;;;;;;;;;4943552;28;20130;-69
2023/01/23 02:32:23;;;;;;;3.15;0.98;;;;;;;;;;4940816;29;20062;-70
2023/01/23 02:34:52;;;;;;;1.20;0.88;;;;;;;;;;4936483;28;20051;-71
2023/01/23 02:37:20;;;;;;;3.90;1.10;;;;;;;;;;4933473;28;20517;-71
2023/01/23 02:39:46;;;;;;;1.27;0.90;;;;;;;;;;4936828;28;20051;-71
2023/01/23 02:42:12;;;;;;;1.75;0.98;;;;;;;;;;4944210;28;20549;-71
2023/01/23 02:44:38;;;;;;;1.35;0.80;;;;;;;;;;4936369;28;20087;-69
2023/01/23 02:47:10;;;;;;;1.52;1.10;;;;;;;;;;4939735;28;20536;-72
2023/01/23 02:49:38;;;;;;;1.15;0.90;;;;;;;;;;4934706;28;20047;-70
2023/01/23 02:52:04;;;;;;;2.05;0.90;;;;;;;;;;4939477;28;20580;-71
2023/01/23 02:54:31;;;;;;;2.30;0.93;;;;;;;;;;4939127;28;20077;-71
2023/01/23 02:56:57;;;;;;;1.42;0.88;;;;;;;;;;4933821;28;20062;-69
2023/01/23 03:02:08;;;;;;;2.33;0.75;;;;;;;;;;4932674;28;21163;-73
2023/01/23 03:04:34;;;;;;;0.65;0.63;;;;;;;;;;4940565;28;20493;-70
2023/01/23 03:07:00;;;;;;;1.25;0.80;;;;;;;;;;4939411;28;20062;-71
2023/01/23 03:09:26;;;;;;;1.23;0.70;;;;;;;;;;4926369;28;20171;-72
2023/01/23 03:11:52;;;;;;;2.05;0.90;;;;;;;;;;4940522;28;20191;-72
2023/01/23 03:14:20;;;;;;;1.17;0.80;;;;;;;;;;4936925;28;20528;-70
2023/01/23 03:16:50;;;;;;;1.45;0.90;;;;;;;;;;4935065;28;20127;-71
2023/01/23 03:19:18;;;;;;;1.02;0.75;;;;;;;;;;4935149;28;20513;-71
2023/01/23 03:21:44;;;;;;;1.30;0.77;;;;;;;;;;4940958;28;20051;-72
2023/01/23 03:24:12;;;;;;;2.83;1.00;;;;;;;;;;4936783;28;20055;-71
2023/01/23 03:26:39;;;;;;;1.45;0.77;;;;;;;;;;4938461;28;20048;-72
2023/01/23 03:31:51;;;;;;;0.88;0.70;;;;;;;;;;4933180;28;20066;-70
2023/01/23 03:34:17;;;;;;;2.25;0.90;;;;;;;;;;4938491;28;20055;-71
2023/01/23 03:36:43;;;;;;;1.45;0.90;;;;;;;;;;4937313;28;20059;-71
2023/01/23 03:41:54;;;;;;;2.33;0.90;;;;;;;;;;4943038;28;20094;-70
2023/01/23 03:44:20;;;;;;;1.10;0.90;;;;;;;;;;4937948;28;20055;-70
2023/01/23 03:46:48;;;;;;;1.10;0.82;;;;;;;;;;4941709;28;20118;-70
2023/01/23 03:49:14;;;;;;;2.22;1.00;;;;;;;;;;4938301;28;20118;-71
2023/01/23 03:51:40;;;;;;;1.05;0.80;;;;;;;;;;4945093;28;20514;-71
2023/01/23 03:54:06;;;;;;;1.73;0.85;;;;;;;;;;4932975;28;20078;-70
2023/01/23 03:56:32;;;;;;;3.08;0.90;;;;;;;;;;4938986;28;20522;-71
2023/01/23 03:58:58;;;;;;;1.70;1.10;;;;;;;;;;4939961;28;20051;-71
2023/01/23 04:01:25;;;;;;;1.58;0.88;;;;;;;;;;4938509;28;20046;-71
2023/01/23 04:03:51;;;;;;;2.08;1.08;;;;;;;;;;4941778;28;20051;-72
2023/01/23 04:06:18;;;;;;;2.22;1.00;;;;;;;;;;4941785;28;20066;-70
2023/01/23 04:08:44;;;;;;;2.97;0.90;;;;;;;;;;4939781;28;20058;-71
2023/01/23 04:11:10;;;;;;;2.40;0.80;;;;;;;;;;4938925;28;20043;-70
2023/01/23 04:13:37;;;;;;;1.35;0.90;;;;;;;;;;4938827;28;20039;-71
2023/01/23 04:16:04;;;;;;;2.80;1.00;;;;;;;;;;4937866;28;20043;-70
2023/01/23 04:18:30;;;;;;;2.85;0.90;;;;;;;;;;4939945;28;20107;-70
2023/01/23 04:20:56;;;;;;;0.95;0.73;;;;;;;;;;4939282;28;20145;-70
2023/01/23 04:23:23;;;;;;;1.95;0.88;;;;;;;;;;4939940;28;20086;-69
2023/01/23 04:25:50;;;;;;;3.45;1.00;;;;;;;;;;4935719;28;20644;-69
2023/01/23 04:28:17;;;;;;;2.10;0.80;;;;;;;;;;4933437;28;20062;-72
2023/01/23 04:30:43;;;;;;;1.65;0.90;;;;;;;;;;4937254;28;20135;-71
2023/01/23 04:33:09;;;;;;;1.10;0.80;;;;;;;;;;4941561;28;20051;-71
2023/01/23 04:35:35;;;;;;;0.90;0.68;;;;;;;;;;4940034;28;20110;-70
2023/01/23 04:38:01;;;;;;;2.20;1.33;;;;;;;;;;4938687;28;20135;-70
2023/01/23 04:40:27;;;;;;;5.78;1.10;;;;;;;;;;4940372;28;20047;-69
2023/01/23 04:42:54;;;;;;;4.07;1.20;;;;;;;;;;4939186;28;20051;-70
2023/01/23 04:45:20;;;;;;;2.90;1.23;;;;;;;;;;4935826;28;20122;-68
2023/01/23 04:47:46;;;;;;;2.95;1.40;;;;;;;;;;4936970;28;20051;-70
2023/01/23 04:50:12;;;;;;;4.50;1.33;;;;;;;;;;4945504;28;20452;-70
2023/01/23 04:52:38;;;;;;;3.35;1.80;;;;;;;;;;4939036;28;20584;-70
2023/01/23 04:55:04;;;;;;;4.38;1.77;;;;;;;;;;4942701;28;20105;-72
2023/01/23 04:57:30;;;;;;;4.40;2.03;;;;;;;;;;4942960;28;20134;-70
2023/01/23 04:59:56;;;;;;;2.92;1.60;;;;;;;;;;4940356;28;20130;-69
2023/01/23 05:02:22;;;;;;;3.20;1.75;;;;;;;;;;4940727;28;20062;-70
2023/01/23 05:04:48;;;;;;;4.35;1.73;;;;;;;;;;4939296;28;20047;-71
2023/01/23 05:07:14;;;;;;;4.88;1.58;;;;;;;;;;4937177;28;21866;-69
2023/01/23 05:09:40;;;;;;;6.90;2.40;;;;;;;;;;4942791;28;20043;-71
2023/01/23 05:12:06;;;;;;;5.20;1.77;;;;;;;;;;4946974;28;20074;-72
2023/01/23 05:14:32;;;;;;;4.55;1.88;;;;;;;;;;4936945;28;20437;-71
2023/01/23 05:16:58;;;;;;;4.50;2.13;;;;;;;;;;4935603;28;20397;-70
2023/01/23 05:19:24;;;;;;;6.90;2.17;;;;;;;;;;4934934;28;20051;-72
2023/01/23 05:21:50;;;;;;;7.25;2.00;;;;;;;;;;4940111;28;20064;-71
2023/01/23 05:24:16;;;;;;;8.73;2.00;;;;;;;;;;4936000;28;20050;-71
2023/01/23 05:26:42;;;;;;;3.60;1.65;;;;;;;;;;4940954;28;20149;-70
2023/01/23 05:29:08;;;;;;;3.72;2.00;;;;;;;;;;4938584;28;20496;-70
2023/01/23 05:31:34;;;;;;;4.35;2.08;;;;;;;;;;4939294;28;20516;-71
2023/01/23 05:34:00;;;;;;;6.55;1.80;;;;;;;;;;4941847;28;20580;-73
2023/01/23 05:36:26;;;;;;;4.30;1.90;;;;;;;;;;4939005;28;20039;-72
2023/01/23 05:38:54;;;;;;;3.13;1.70;;;;;;;;;;4938738;28;20051;-69
2023/01/23 05:41:20;;;;;;;4.20;1.98;;;;;;;;;;4944516;29;20039;-70
2023/01/23 05:43:48;;;;;;;7.40;2.70;;;;;;;;;;4934260;28;20106;-71
2023/01/23 05:46:15;;;;;;;3.53;2.00;;;;;;;;;;4939292;28;20161;-73
2023/01/23 05:48:41;;;;;;;7.65;2.35;;;;;;;;;;4936340;28;20055;-71
2023/01/23 05:51:07;;;;;;;4.53;2.40;;;;;;;;;;4941768;28;20077;-70
2023/01/23 05:53:33;;;;;;;5.05;2.55;;;;;;;;;;4944862;28;20043;-70
2023/01/23 05:56:05;;;;;;;4.80;2.75;;;;;;;;;;4938787;28;20146;-70
2023/01/23 05:58:30;;;;;;;7.60;3.00;;;;;;;;;;4941477;28;20102;-72
2023/01/23 06:00:56;;;;;;;9.75;3.17;;;;;;;;;;4939677;28;20111;-73
2023/01/23 06:03:22;;;;;;;8.15;3.28;;;;;;;;;;4939260;28;20745;-71
2023/01/23 06:05:48;;;;;;;10.20;3.33;;;;;;;;;;4939738;28;20114;-70
2023/01/23 06:08:14;;;;;;;6.72;3.03;;;;;;;;;;4942998;28;20493;-70
2023/01/23 06:10:40;;;;;;;6.88;2.85;;;;;;;;;;4940359;28;20043;-70
2023/01/23 06:13:06;;;;;;;6.72;2.95;;;;;;;;;;4941612;28;20114;-71
2023/01/23 06:15:32;;;;;;;6.25;2.92;;;;;;;;;;4944685;28;20039;-71
2023/01/23 06:17:58;;;;;;;8.35;2.78;;;;;;;;;;4931921;28;21634;-71
2023/01/23 06:20:24;;;;;;;8.30;2.50;;;;;;;;;;4942870;28;20055;-72
2023/01/23 06:22:50;;;;;;;7.78;2.58;;;;;;;;;;4947229;28;20047;-71
2023/01/23 06:25:19;;;;;;;4.43;2.50;;;;;;;;;;4942109;28;20535;-70
2023/01/23 06:27:45;;;;;;;4.70;2.60;;;;;;;;;;4939487;28;20150;-69
2023/01/23 06:30:12;;;;;;;5.20;2.58;;;;;;;;;;4940203;28;20062;-72
2023/01/23 06:32:38;;;;;;;6.43;2.70;;;;;;;;;;4941428;28;20047;-70
2023/01/23 06:35:05;;;;;;;4.38;2.25;;;;;;;;;;4927983;28;20078;-71
2023/01/23 06:37:31;;;;;;;6.70;1.92;;;;;;;;;;4939421;28;20052;-71
2023/01/23 06:39:57;;;;;;;7.38;1.80;;;;;;;;;;4934177;28;20056;-72
2023/01/23 06:42:23;;;;;;;4.68;2.55;;;;;;;;;;4946428;28;20058;-72
2023/01/23 06:44:49;;;;;;;6.35;2.47;;;;;;;;;;4939724;28;20063;-71
2023/01/23 06:47:15;;;;;;;8.32;2.25;;;;;;;;;;4930029;28;20047;-72
2023/01/23 06:49:41;;;;;;;8.52;2.03;;;;;;;;;;4938661;28;20047;-74
2023/01/23 06:52:07;;;;;;;4.72;2.40;;;;;;;;;;4936164;28;20078;-70
2023/01/23 06:54:33;;;;;;;6.15;2.58;;;;;;;;;;4934703;28;20089;-71
2023/01/23 06:56:59;;;;;;;6.10;2.75;;;;;;;;;;4935389;28;20047;-72
2023/01/23 06:59:25;;;;;;;4.90;2.63;;;;;;;;;;4938708;28;20094;-70
2023/01/23 07:01:51;;;;;;;5.93;2.90;;;;;;;;;;4933938;28;20537;-70
2023/01/23 07:04:17;;;;;;;6.43;2.60;;;;;;;;;;4936497;28;20047;-72
2023/01/23 07:06:43;;;;;;;12.45;3.10;;;;;;;;;;4929960;28;20111;-72
2023/01/23 07:09:09;;;;;;;9.35;3.17;;;;;;;;;;4935637;28;20405;-72
2023/01/23 07:11:36;;;;;;;13.35;4.03;;;;;;;;;;4933096;28;20051;-73
2023/01/23 07:14:02;;;;;;;10.60;3.50;;;;;;;;;;4933872;28;20062;-73
2023/01/23 07:16:28;;;;;;;10.65;3.33;;;;;;;;;;4938405;29;20055;-72
2023/01/23 07:18:57;;;;;;;10.27;3.40;;;;;;;;;;4934252;28;20098;-73
2023/01/23 07:21:23;;;;;;;10.80;3.30;;;;;;;;;;4929394;28;20489;-70
2023/01/23 07:23:49;;;;;;;11.93;2.90;;;;;;;;;;4936323;28;20059;-72
2023/01/23 07:26:15;;;;;;;10.25;3.10;;;;;;;;;;4934757;28;20043;-69
2023/01/23 07:28:42;;;;;;;9.30;3.10;;;;;;;;;;4938849;28;20050;-78
2023/01/23 07:31:08;;;;;;;9.35;2.83;;;;;;;;;;4930062;28;20052;-77
2023/01/23 07:33:43;;;;;;;14.45;3.40;;;;;;;;;;5121550;27;1483304;-75
2023/01/23 07:36:12;;;;;;;7.35;3.03;;;;;;;;;;5150681;27;20162;-72
2023/01/23 07:38:39;;;;;;;13.32;3.22;;;;;;;;;;5144053;27;20429;-77
2023/01/23 07:41:05;;;;;;;11.02;2.88;;;;;;;;;;5153996;27;20117;-73
2023/01/23 07:43:31;;;;;;;11.60;3.28;;;;;;;;;;5150229;27;20489;-78
2023/01/23 07:45:58;;;;;;;10.98;3.15;;;;;;;;;;5149742;27;21042;-75
2023/01/23 07:48:24;;;;;;;11.63;2.60;;;;;;;;;;5154098;27;20065;-71
2023/01/23 07:50:50;;;;;;;13.88;3.05;;;;;;;;;;5149960;27;20498;-76
2023/01/23 07:53:16;;;;;;;8.30;3.17;;;;;;;;;;5155961;27;20038;-74
2023/01/23 07:55:43;;;;;;;12.05;3.00;;;;;;;;;;5145470;27;20608;-75
2023/01/23 07:58:09;;;;;;;10.65;3.30;;;;;;;;;;5143096;27;21196;-74
2023/01/23 08:00:35;;;;;;;16.00;3.75;;;;;;;;;;5148535;27;20054;-77
2023/01/23 08:03:00;;;;;;;11.50;4.40;;;;;;;;;;5150314;27;20057;-78
2023/01/23 08:05:27;;;;;;;10.25;2.95;;;;;;;;;;5144458;27;20711;-76
2023/01/23 08:07:53;;;;;;;8.60;3.45;;;;;;;;;;5131647;27;20109;-78
2023/01/23 08:10:19;;;;;;;15.43;3.50;;;;;;;;;;5150349;27;20042;-74
2023/01/23 08:12:45;;;;;;;8.57;3.17;;;;;;;;;;5151188;27;20065;-77
2023/01/23 08:15:11;;;;;;;11.68;3.40;;;;;;;;;;5150383;27;20053;-75
2023/01/23 08:17:37;;;;;;;13.80;3.05;;;;;;;;;;5146431;27;20038;-75
2023/01/23 08:20:03;;;;;;;17.55;4.00;;;;;;;;;;5133848;27;20900;-78
2023/01/23 08:22:29;;;;;;;8.10;3.60;;;;;;;;;;5151528;27;20531;-77
2023/01/23 08:24:55;;;;;;;15.05;3.33;;;;;;;;;;5147146;27;20674;-74
2023/01/23 08:27:21;;;;;;;16.13;4.00;;;;;;;;;;5147586;27;20038;-79
2023/01/23 08:29:47;;;;;;;11.15;3.55;;;;;;;;;;5138799;27;20047;-76
2023/01/23 08:32:13;;;;;;;9.90;3.42;;;;;;;;;;5148932;27;20053;-78
2023/01/23 08:34:40;;;;;;;17.40;3.85;;;;;;;;;;5146903;27;20193;-75
2023/01/23 08:37:05;;;;;;;17.23;3.80;;;;;;;;;;5129154;27;20073;-76
2023/01/23 08:39:32;;;;;;;20.13;3.92;;;;;;;;;;5134557;27;20069;-76
2023/01/23 08:41:57;;;;;;;17.08;4.07;;;;;;;;;;5150192;27;20425;-75
2023/01/23 08:44:24;;;;;;;17.85;3.67;;;;;;;;;;5139799;27;20046;-76
2023/01/23 08:46:49;;;;;;;6.22;2.88;;;;;;;;;;5138670;27;20627;-77
2023/01/23 08:49:18;;;;;;;8.98;3.63;;;;;;;;;;5141107;27;20042;-74
2023/01/23 08:51:44;;;;;;;18.00;3.63;;;;;;;;;;5123377;27;20158;-77
2023/01/23 08:54:10;;;;;;;11.00;3.25;;;;;;;;;;5143919;27;20534;-77
2023/01/23 08:56:36;;;;;;;12.57;3.08;;;;;;;;;;5138829;27;20046;-76
2023/01/23 08:59:02;;;;;;;10.48;3.58;;;;;;;;;;5133609;27;20050;-77
2023/01/23 09:01:27;;;;;;;8.15;3.85;;;;;;;;;;5138013;27;20039;-76
2023/01/23 09:03:55;;;;;;;10.73;3.20;;;;;;;;;;5136740;27;20129;-79
2023/01/23 09:06:21;;;;;;;16.85;4.10;;;;;;;;;;5138675;27;20089;-76
2023/01/23 09:08:48;;;;;;;15.65;3.65;;;;;;;;;;5135528;27;20061;-76
2023/01/23 09:11:14;;;;;;;16.33;3.70;;;;;;;;;;5115403;27;20377;-75
2023/01/23 09:13:41;;;;;;;12.35;3.50;;;;;;;;;;5132144;27;20053;-75
2023/01/23 09:16:07;;;;;;;13.07;3.88;;;;;;;;;;5136969;27;20169;-74
2023/01/23 09:18:34;;;;;;;11.85;4.18;;;;;;;;;;5139890;27;20122;-75
2023/01/23 09:21:05;;;;;;;14.80;4.07;;;;;;;;;;5112297;27;20509;-74
2023/01/23 09:23:32;;;;;;;8.57;4.13;;;;;;;;;;5139463;27;20063;-76
2023/01/23 09:26:03;;;;;;;12.32;3.10;;;;;;;;;;5135891;27;20389;-78
2023/01/23 09:28:29;;;;;;;11.43;3.60;;;;;;;;;;5133162;27;20126;-80
2023/01/23 09:30:54;;;;;;;13.60;3.63;;;;;;;;;;5140942;27;20124;-78
2023/01/23 09:33:25;;;;;;;6.32;3.25;;;;;;;;;;5135283;27;20047;-78
2023/01/23 09:35:52;;;;;;;5.78;2.85;;;;;;;;;;5134644;27;20058;-76
2023/01/23 09:38:18;;;;;;;8.35;2.08;;;;;;;;;;5138243;27;20049;-79
2023/01/23 09:40:55;;;;;;;4.82;2.10;;;;;;;;;;5135903;27;20096;-77
2023/01/23 09:43:38;;;;;;;4.10;1.55;;;;;;;;;;5134719;27;20043;-76
2023/01/23 09:46:10;;;;;;;7.13;2.40;;;;;;;;;;5141488;27;20118;-78
2023/01/23 09:48:43;;;;;;;4.25;1.60;;;;;;;;;;5142661;27;20077;-77
2023/01/23 09:51:25;;;;;;;4.03;1.90;;;;;;;;;;5135411;27;20051;-80
2023/01/23 09:53:57;;;;;;;5.65;2.10;;;;;;;;;;5138512;27;20183;-77
2023/01/23 09:56:30;;;;;;;6.32;1.95;;;;;;;;;;5139527;27;20039;-77
2023/01/23 09:58:56;;;;;;;9.43;2.15;;;;;;;;;;5116952;27;20055;-77
2023/01/23 10:01:25;;;;;;;6.43;1.88;;;;;;;;;;5131273;27;20111;-78
2023/01/23 10:03:51;;;;;;;1.95;1.30;;;;;;;;;;5119470;27;20210;-76
2023/01/23 10:06:24;;;;;;;7.82;1.80;;;;;;;;;;5141343;27;20071;-78
2023/01/23 10:09:20;;;;;;;6.25;1.83;;;;;;;;;;5133220;27;20479;-77
2023/01/23 10:12:13;;;;;;;7.43;2.00;;;;;;;;;;5137476;27;20043;-79
2023/01/23 10:15:17;;;;;;;6.35;2.08;;;;;;;;;;5137151;27;20043;-78
2023/01/23 10:18:24;;;;;;;3.47;2.20;;;;;;;;;;5132341;27;20055;-77
2023/01/23 10:20:56;;;;;;;6.07;1.92;;;;;;;;;;5107024;27;20104;-77
2023/01/23 10:23:49;;;;;;;5.60;1.70;;;;;;;;;;5137204;27;20768;-76
2023/01/23 10:26:33;;;;;;;4.40;2.17;;;;;;;;;;5142073;27;20046;-74
2023/01/23 10:29:35;;;;;;;5.43;2.20;;;;;;;;;;5140130;27;20119;-76
2023/01/23 10:32:05;;;;;;;2.88;1.80;;;;;;;;;;5111385;27;20419;-75
2023/01/23 10:34:56;;;;;;;5.10;1.80;;;;;;;;;;5135495;27;20054;-79
2023/01/23 10:37:31;;;;;;;6.60;2.13;;;;;;;;;;5140432;27;20049;-76
2023/01/23 10:43:16;;;;;;;3.65;1.83;;;;;;;;;;5133755;27;20415;-78
2023/01/23 10:45:44;;;;;;;3.55;1.90;;;;;;;;;;5132948;27;20046;-77
2023/01/23 10:48:48;;;;;;;3.20;1.60;;;;;;;;;;5135186;27;20058;-76
2023/01/23 10:51:45;;;;;;;3.40;1.63;;;;;;;;;;5133730;27;20415;-78
2023/01/23 10:54:12;;;;;;;2.88;1.23;;;;;;;;;;5117860;27;20058;-75
2023/01/23 10:56:54;;;;;;;5.28;1.95;;;;;;;;;;5135462;27;20042;-79
2023/01/23 10:59:38;;;;;;;1.67;1.25;;;;;;;;;;5129732;27;20041;-75
2023/01/23 11:02:12;;;;;;;2.70;1.20;;;;;;;;;;5135315;27;20050;-76
2023/01/23 11:04:44;;;;;;;4.05;1.38;;;;;;;;;;5117347;27;20721;-75
2023/01/23 11:07:25;;;;;;;2.40;1.00;;;;;;;;;;5136761;27;20042;-79
2023/01/23 11:10:07;;;;;;;1.83;1.00;;;;;;;;;;5134510;27;20045;-74
2023/01/23 11:12:45;;;;;;;1.58;1.15;;;;;;;;;;5133327;27;20094;-77
2023/01/23 11:15:26;;;;;;;1.20;0.95;;;;;;;;;;5137011;27;20062;-76
2023/01/23 11:17:54;;;;;;;1.23;0.80;;;;;;;;;;5131040;27;20133;-76
2023/01/23 11:20:33;;;;;;;2.63;0.90;;;;;;;;;;5130444;27;20039;-74
2023/01/23 11:22:59;;;;;;;3.10;1.00;;;;;;;;;;5117732;27;20046;-74
2023/01/23 11:25:49;;;;;;;2.83;0.98;;;;;;;;;;5129257;27;20050;-76
2023/01/23 11:28:33;;;;;;;5.07;1.20;;;;;;;;;;5135460;27;20041;-80
2023/01/23 11:31:08;;;;;;;4.93;1.13;;;;;;;;;;5117803;27;20050;-76
2023/01/23 11:33:40;;;;;;;4.78;1.38;;;;;;;;;;5132785;27;20406;-76
2023/01/23 11:36:16;;;;;;;3.33;1.63;;;;;;;;;;5138696;27;20491;-77
2023/01/23 11:38:50;;;;;;;3.17;1.05;;;;;;;;;;5137783;27;20515;-77
2023/01/23 11:41:16;;;;;;;2.63;1.25;;;;;;;;;;5134980;27;20043;-81
2023/01/23 11:43:41;;;;;;;1.45;1.02;;;;;;;;;;5131700;27;20513;-80
2023/01/23 11:46:35;;;;;;;3.70;1.10;;;;;;;;;;5128409;27;20071;-76
2023/01/23 11:49:25;;;;;;;3.28;1.10;;;;;;;;;;5117056;27;20172;-79
2023/01/23 11:52:30;;;;;;;1.20;0.90;;;;;;;;;;5141105;27;20054;-78
2023/01/23 11:55:24;;;;;;;2.80;1.60;;;;;;;;;;5089889;27;20058;-74
2023/01/23 11:58:13;;;;;;;3.17;1.77;;;;;;;;;;5113701;27;20070;-77
2023/01/23 12:01:17;;;;;;;1.95;1.20;;;;;;;;;;5127753;27;20395;-78
2023/01/23 12:03:52;;;;;;;1.55;1.10;;;;;;;;;;5089907;28;20659;-78
2023/01/23 12:06:55;;;;;;;2.35;1.25;;;;;;;;;;5075156;28;20179;-76
2023/01/23 12:09:31;;;;;;;3.25;1.35;;;;;;;;;;5076461;28;20194;-77
2023/01/23 12:12:36;;;;;;;2.40;1.13;;;;;;;;;;5082462;28;20052;-78
2023/01/23 12:15:29;;;;;;;2.23;1.20;;;;;;;;;;5041385;28;20419;-75
2023/01/23 12:18:16;;;;;;;2.20;1.38;;;;;;;;;;5083571;28;20056;-82
2023/01/23 12:21:05;;;;;;;3.63;1.50;;;;;;;;;;5082725;28;20129;-79
2023/01/23 12:24:01;;;;;;;3.28;1.60;;;;;;;;;;5081015;28;20465;-73
2023/01/23 12:26:30;;;;;;;7.60;1.75;;;;;;;;;;5081211;28;20051;-77
2023/01/23 12:29:33;;;;;;;3.75;1.40;;;;;;;;;;5081107;28;20060;-79
2023/01/23 12:32:20;;;;;;;3.28;1.30;;;;;;;;;;5067262;28;20059;-74
2023/01/23 12:35:07;;;;;;;4.72;1.58;;;;;;;;;;5077794;28;20493;-80
2023/01/23 12:37:49;;;;;;;2.05;1.25;;;;;;;;;;5102683;27;20051;-76
2023/01/23 12:40:25;;;;;;;2.85;1.17;;;;;;;;;;5140711;27;20089;-73
2023/01/23 12:43:02;;;;;;;2.60;1.23;;;;;;;;;;5138557;27;20043;-77
2023/01/23 12:45:30;;;;;;;2.38;1.60;;;;;;;;;;5140751;27;20078;-76
2023/01/23 12:48:13;;;;;;;2.80;1.42;;;;;;;;;;5136246;27;20039;-76
2023/01/23 12:50:50;;;;;;;4.82;1.30;;;;;;;;;;5136272;27;20484;-76
2023/01/23 12:53:20;;;;;;;2.03;1.50;;;;;;;;;;5133732;27;20046;-75
2023/01/23 12:56:09;;;;;;;2.30;1.40;;;;;;;;;;5128543;27;20441;-76
2023/01/23 12:58:41;;;;;;;4.03;1.40;;;;;;;;;;5141333;27;20106;-81
2023/01/23 13:01:45;;;;;;;3.38;1.60;;;;;;;;;;5138193;27;20106;-78
2023/01/23 13:04:29;;;;;;;3.88;1.42;;;;;;;;;;5135702;27;20043;-75
2023/01/23 13:07:23;;;;;;;5.65;1.85;;;;;;;;;;5137491;27;20471;-74
2023/01/23 13:10:19;;;;;;;3.38;1.73;;;;;;;;;;5131342;27;20099;-77
2023/01/23 13:12:45;;;;;;;3.08;1.30;;;;;;;;;;5134010;27;20117;-75
2023/01/23 13:15:23;;;;;;;3.30;1.70;;;;;;;;;;5134319;27;20046;-78
2023/01/23 13:18:02;;;;;;;5.13;1.77;;;;;;;;;;5134740;27;20046;-79
2023/01/23 13:23:28;;;;;;;3.47;1.20;;;;;;;;;;5136877;27;20045;-79
2023/01/23 13:26:30;;;;;;;1.77;1.15;;;;;;;;;;5138708;27;20433;-77
2023/01/23 13:29:00;;;;;;;2.67;1.55;;;;;;;;;;5058181;28;20656;-76
2023/01/23 13:31:33;;;;;;;3.25;1.88;;;;;;;;;;5054134;28;20188;-77
2023/01/23 13:34:02;;;;;;;3.10;1.77;;;;;;;;;;5056631;28;20106;-75
2023/01/23 13:36:31;;;;;;;2.25;1.33;;;;;;;;;;5055757;28;20051;-77
2023/01/23 13:39:03;;;;;;;2.38;1.38;;;;;;;;;;5057292;28;20131;-79
2023/01/23 13:41:31;;;;;;;2.40;1.40;;;;;;;;;;5059614;28;20055;-75
2023/01/23 13:44:28;;;;;;;1.65;1.17;;;;;;;;;;5058032;28;20441;-79
2023/01/23 13:49:49;;;;;;;2.75;1.52;;;;;;;;;;5057620;28;20044;-77
2023/01/23 13:50:41;;;;;;;3.95;1.20;;;;;;;;;;5054745;28;20509;-77
2023/01/23 13:58:47;;;;;;;2.58;1.20;;;;;;;;;;5050619;28;21213;-75
2023/01/23 14:07:01;;;;;;;2.80;1.17;;;;;;;;;;5131660;27;20049;-76
2023/01/23 14:09:30;;;;;;;2.03;1.25;;;;;;;;;;5135378;27;20050;-79
2023/01/23 14:12:04;;;;;;;3.30;1.95;;;;;;;;;;5135704;27;20047;-77
2023/01/23 14:17:24;;;;;;;6.35;1.75;;;;;;;;;;5135566;27;20170;-75
2023/01/23 14:19:53;;;;;;;2.95;1.33;;;;;;;;;;5139036;27;20059;-76
2023/01/23 14:22:19;;;;;;;3.13;1.40;;;;;;;;;;5136316;27;20410;-76
2023/01/23 14:24:51;;;;;;;2.85;1.35;;;;;;;;;;5134765;27;20051;-79
2023/01/23 14:27:32;;;;;;;2.92;1.05;;;;;;;;;;5140759;27;20492;-79
2023/01/23 14:30:01;;;;;;;2.80;1.60;;;;;;;;;;5127263;27;20051;-76
2023/01/23 14:32:29;;;;;;;2.72;1.20;;;;;;;;;;5139615;27;20051;-76
2023/01/23 14:34:55;;;;;;;2.53;1.30;;;;;;;;;;5134260;27;20035;-75
2023/01/23 14:37:21;;;;;;;1.73;1.10;;;;;;;;;;5136401;27;20219;-75
2023/01/23 14:39:48;;;;;;;2.92;1.30;;;;;;;;;;5135673;27;20051;-76
2023/01/23 14:42:31;;;;;;;3.85;0.90;;;;;;;;;;5132078;27;20138;-77
2023/01/23 14:45:00;;;;;;;1.83;1.10;;;;;;;;;;5131726;27;20058;-77
2023/01/23 14:47:30;;;;;;;5.38;1.20;;;;;;;;;;5115576;27;20049;-79
2023/01/23 14:49:56;;;;;;;1.60;0.82;;;;;;;;;;5132739;27;20045;-77
2023/01/23 14:52:28;;;;;;;1.35;0.93;;;;;;;;;;5135382;27;20046;-77
2023/01/23 14:54:55;;;;;;;1.38;1.00;;;;;;;;;;5138253;27;20734;-75
2023/01/23 14:57:24;;;;;;;2.05;1.08;;;;;;;;;;5139591;27;20789;-77
2023/01/23 14:59:54;;;;;;;3.20;1.27;;;;;;;;;;5135111;27;20173;-77
2023/01/23 15:02:33;;;;;;;1.48;0.90;;;;;;;;;;5137782;27;20484;-77
2023/01/23 15:05:14;;;;;;;6.90;1.20;;;;;;;;;;5130753;27;20047;-76
2023/01/23 15:08:02;;;;;;;1.67;1.00;;;;;;;;;;5121808;27;20053;-79
2023/01/23 15:10:31;;;;;;;3.22;1.40;;;;;;;;;;5133699;27;20061;-77
2023/01/23 15:13:22;;;;;;;3.17;1.17;;;;;;;;;;5136034;27;20051;-78
2023/01/23 15:16:00;;;;;;;7.38;1.55;;;;;;;;;;5099878;27;20282;-78
2023/01/23 15:18:29;;;;;;;4.78;1.30;;;;;;;;;;5136247;27;20269;-75
2023/01/23 15:20:55;;;;;;;2.60;1.15;;;;;;;;;;5137074;27;20035;-77
2023/01/23 15:23:27;;;;;;;5.07;1.58;;;;;;;;;;5140176;27;20681;-75
2023/01/23 15:26:11;;;;;;;3.22;1.15;;;;;;;;;;5135234;27;20053;-79
2023/01/23 15:28:48;;;;;;;6.28;1.13;;;;;;;;;;5133520;27;22179;-79
2023/01/23 15:31:37;;;;;;;2.25;1.08;;;;;;;;;;5135450;27;20143;-81
2023/01/23 15:34:13;;;;;;;1.52;0.90;;;;;;;;;;5138973;27;20038;-78